createdAt,value
2016-06-01T00:00:47.838Z,1014.83
2016-06-01T00:01:47.825Z,1014.85
2016-06-01T00:02:47.812Z,1014.87
2016-06-01T00:03:47.799Z,1014.88
2016-06-01T00:04:47.771Z,1014.86
2016-06-01T00:05:47.757Z,1014.86
2016-06-01T00:06:47.744Z,1014.86
2016-06-01T00:07:47.732Z,1014.88
2016-06-01T00:08:47.718Z,1014.84
2016-06-01T00:09:47.727Z,1014.87
2016-06-01T00:10:47.741Z,1014.87
2016-06-01T00:11:47.753Z,1014.85
2016-06-01T00:12:47.752Z,1014.85
2016-06-01T00:13:47.764Z,1014.88
2016-06-01T00:14:47.765Z,1014.83
2016-06-01T00:15:47.760Z,1014.82
2016-06-01T00:16:47.757Z,1014.82
2016-06-01T00:17:47.754Z,1014.77
2016-06-01T00:18:47.735Z,1014.78
2016-06-01T00:19:47.727Z,1014.79
2016-06-01T00:20:47.717Z,1014.79
2016-06-01T00:21:47.708Z,1014.75
2016-06-01T00:22:47.682Z,1014.77
2016-06-01T00:23:47.689Z,1014.76
2016-06-01T00:24:47.677Z,1014.75
2016-06-01T00:25:47.650Z,1014.72
2016-06-01T00:26:47.638Z,1014.73
2016-06-01T00:27:47.626Z,1014.7
2016-06-01T00:28:47.615Z,1014.69
2016-06-01T00:29:47.586Z,1014.68
2016-06-01T00:30:47.574Z,1014.65
2016-06-01T00:31:47.561Z,1014.64
2016-06-01T00:32:47.549Z,1014.64
2016-06-01T00:33:47.536Z,1014.64
2016-06-01T00:34:47.523Z,1014.62
2016-06-01T00:35:47.495Z,1014.64
2016-06-01T00:36:47.498Z,1014.64
2016-06-01T00:37:47.484Z,1014.61
2016-06-01T00:38:47.456Z,1014.59
2016-06-01T00:39:47.444Z,1014.56
2016-06-01T00:40:47.431Z,1014.57
2016-06-01T00:41:47.417Z,1014.59
2016-06-01T00:42:47.405Z,1014.56
2016-06-01T00:43:47.375Z,1014.53
2016-06-01T00:44:47.363Z,1014.56
2016-06-01T00:45:47.350Z,1014.56
2016-06-01T00:46:47.337Z,1014.51
2016-06-01T00:47:47.324Z,1014.5
2016-06-01T00:48:47.311Z,1014.5
2016-06-01T00:49:47.299Z,1014.48
2016-06-01T00:50:47.267Z,1014.49
2016-06-01T00:51:47.254Z,1014.47
2016-06-01T00:52:47.241Z,1014.45
2016-06-01T00:53:47.229Z,1014.41
2016-06-01T00:54:47.215Z,1014.41
2016-06-01T00:55:47.202Z,1014.4
2016-06-01T00:56:47.174Z,1014.37
2016-06-01T00:57:47.160Z,1014.36
2016-06-01T00:58:47.148Z,1014.36
2016-06-01T00:59:47.135Z,1014.36
2016-06-01T01:00:47.122Z,1014.32
2016-06-01T01:01:47.093Z,1014.32
2016-06-01T01:02:47.081Z,1014.3
2016-06-01T01:03:47.068Z,1014.32
2016-06-01T01:04:47.070Z,1014.32
2016-06-01T01:05:47.042Z,1014.29
2016-06-01T01:06:47.028Z,1014.24
2016-06-01T01:07:47.016Z,1014.3
2016-06-01T01:08:47.065Z,1014.28
2016-06-01T01:09:46.975Z,1014.3
2016-06-01T01:10:46.961Z,1014.26
2016-06-01T01:11:46.948Z,1014.29
2016-06-01T01:12:46.936Z,1014.25
2016-06-01T01:13:46.922Z,1014.23
2016-06-01T01:14:46.910Z,1014.21
2016-06-01T01:15:46.881Z,1014.23
2016-06-01T01:16:46.869Z,1014.21
2016-06-01T01:17:46.855Z,1014.2
2016-06-01T01:18:46.842Z,1014.18
2016-06-01T01:19:46.829Z,1014.18
2016-06-01T01:20:46.801Z,1014.19
2016-06-01T01:21:46.788Z,1014.15
2016-06-01T01:22:46.775Z,1014.15
2016-06-01T01:23:46.762Z,1014.18
2016-06-01T01:24:46.749Z,1014.13
2016-06-01T01:25:46.736Z,1014.16
2016-06-01T01:26:46.723Z,1014.1
2016-06-01T01:27:46.695Z,1014.09
2016-06-01T01:28:46.682Z,1014.09
2016-06-01T01:29:46.669Z,1014.09
2016-06-01T01:30:46.656Z,1014.07
2016-06-01T01:31:46.642Z,1014.04
2016-06-01T01:32:46.629Z,1014.02
2016-06-01T01:33:46.632Z,1014.03
2016-06-01T01:34:46.604Z,1014.04
2016-06-01T01:35:46.575Z,1014.04
2016-06-01T01:36:46.562Z,1014.01
2016-06-01T01:37:46.550Z,1013.96
2016-06-01T01:38:46.850Z,1013.96
2016-06-01T01:39:46.523Z,1014.01
2016-06-01T01:40:46.495Z,1014
2016-06-01T01:41:46.482Z,1013.94
2016-06-01T01:42:46.469Z,1013.98
2016-06-01T01:43:46.456Z,1013.94
2016-06-01T01:44:46.428Z,1013.94
2016-06-01T01:45:46.430Z,1013.91
2016-06-01T01:46:46.402Z,1013.91
2016-06-01T01:47:46.389Z,1013.91
2016-06-01T01:48:46.377Z,1013.91
2016-06-01T01:49:46.363Z,1013.87
2016-06-01T01:50:46.335Z,1013.89
2016-06-01T01:51:46.322Z,1013.87
2016-06-01T01:52:46.308Z,1013.83
2016-06-01T01:53:46.296Z,1013.86
2016-06-01T01:54:46.282Z,1013.84
2016-06-01T01:55:46.254Z,1013.89
2016-06-01T01:56:46.257Z,1013.82
2016-06-01T01:57:46.229Z,1013.87
2016-06-01T01:58:46.215Z,1013.89
2016-06-01T01:59:46.202Z,1013.83
2016-06-01T02:00:46.190Z,1013.84
2016-06-01T02:01:46.176Z,1013.81
2016-06-01T02:02:46.148Z,1013.78
2016-06-01T02:03:46.134Z,1013.79
2016-06-01T02:04:46.123Z,1013.78
2016-06-01T02:05:46.109Z,1013.77
2016-06-01T02:06:46.096Z,1013.74
2016-06-01T02:07:46.068Z,1013.78
2016-06-01T02:08:46.055Z,1013.74
2016-06-01T02:09:46.041Z,1013.78
2016-06-01T02:10:46.029Z,1013.72
2016-06-01T02:11:46.016Z,1013.73
2016-06-01T02:12:46.003Z,1013.72
2016-06-01T02:13:45.975Z,1013.71
2016-06-01T02:14:45.961Z,1013.68
2016-06-01T02:15:45.964Z,1013.68
2016-06-01T02:16:45.936Z,1013.66
2016-06-01T02:17:45.923Z,1013.69
2016-06-01T02:18:45.894Z,1013.67
2016-06-01T02:19:45.881Z,1013.65
2016-06-01T02:20:45.883Z,1013.6
2016-06-01T02:21:45.871Z,1013.58
2016-06-01T02:22:45.858Z,1013.56
2016-06-01T02:23:45.829Z,1013.57
2016-06-01T02:24:45.817Z,1013.54
2016-06-01T02:25:45.804Z,1013.59
2016-06-01T02:26:45.790Z,1013.57
2016-06-01T02:27:45.777Z,1013.58
2016-06-01T02:28:45.749Z,1013.57
2016-06-01T02:29:45.736Z,1013.58
2016-06-01T02:30:45.724Z,1013.58
2016-06-01T02:31:45.711Z,1013.61
2016-06-01T02:32:45.681Z,1013.56
2016-06-01T02:33:45.669Z,1013.58
2016-06-01T02:34:45.656Z,1013.57
2016-06-01T02:35:45.643Z,1013.57
2016-06-01T02:36:45.631Z,1013.58
2016-06-01T02:37:45.617Z,1013.55
2016-06-01T02:38:45.588Z,1013.58
2016-06-01T02:39:45.591Z,1013.56
2016-06-01T02:40:45.562Z,1013.56
2016-06-01T02:41:45.550Z,1013.55
2016-06-01T02:42:45.537Z,1013.56
2016-06-01T02:43:45.525Z,1013.56
2016-06-01T02:44:45.495Z,1013.55
2016-06-01T02:45:45.482Z,1013.55
2016-06-01T02:46:45.469Z,1013.52
2016-06-01T02:47:45.519Z,1013.52
2016-06-01T02:48:45.428Z,1013.51
2016-06-01T02:49:45.416Z,1013.48
2016-06-01T02:50:45.402Z,1013.45
2016-06-01T02:51:45.466Z,1013.44
2016-06-01T02:52:45.376Z,1013.48
2016-06-01T02:53:45.864Z,1013.49
2016-06-01T02:54:45.350Z,1013.46
2016-06-01T02:55:45.322Z,1013.41
2016-06-01T02:56:45.310Z,1013.44
2016-06-01T02:57:45.296Z,1013.45
2016-06-01T02:58:45.282Z,1013.39
2016-06-01T02:59:45.255Z,1013.41
2016-06-01T03:00:45.257Z,1013.45
2016-06-01T03:01:45.229Z,1013.44
2016-06-01T03:02:45.216Z,1013.42
2016-06-01T03:03:45.203Z,1013.39
2016-06-01T03:04:45.189Z,1013.41
2016-06-01T03:05:45.177Z,1013.41
2016-06-01T03:06:45.164Z,1013.4
2016-06-01T03:07:45.151Z,1013.39
2016-06-01T03:08:45.123Z,1013.39
2016-06-01T03:09:45.109Z,1013.41
2016-06-01T03:10:45.081Z,1013.41
2016-06-01T03:11:45.067Z,1013.39
2016-06-01T03:12:45.071Z,1013.39
2016-06-01T03:13:45.058Z,1013.45
2016-06-01T03:14:45.029Z,1013.44
2016-06-01T03:15:45.016Z,1013.46
2016-06-01T03:16:45.003Z,1013.44
2016-06-01T03:17:44.991Z,1013.45
2016-06-01T03:18:44.962Z,1013.5
2016-06-01T03:19:44.949Z,1013.5
2016-06-01T03:20:44.936Z,1013.49
2016-06-01T03:21:44.923Z,1013.45
2016-06-01T03:22:44.894Z,1013.41
2016-06-01T03:23:44.882Z,1013.44
2016-06-01T03:24:44.869Z,1013.44
2016-06-01T03:25:44.856Z,1013.43
2016-06-01T03:26:44.843Z,1013.43
2016-06-01T03:27:44.830Z,1013.39
2016-06-01T03:28:44.802Z,1013.42
2016-06-01T03:29:44.804Z,1013.4
2016-06-01T03:30:44.776Z,1013.4
2016-06-01T03:31:44.763Z,1013.41
2016-06-01T03:32:44.735Z,1013.39
2016-06-01T03:33:44.737Z,1013.42
2016-06-01T03:34:44.723Z,1013.45
2016-06-01T03:35:44.695Z,1013.43
2016-06-01T03:36:44.682Z,1013.4
2016-06-01T03:37:44.670Z,1013.42
2016-06-01T03:38:44.657Z,1013.37
2016-06-01T03:39:44.643Z,1013.38
2016-06-01T03:40:44.614Z,1013.33
2016-06-01T03:41:44.601Z,1013.35
2016-06-01T03:42:44.589Z,1013.33
2016-06-01T03:43:44.561Z,1013.33
2016-06-01T03:44:44.564Z,1013.32
2016-06-01T03:45:44.535Z,1013.34
2016-06-01T03:46:44.521Z,1013.3
2016-06-01T03:47:44.508Z,1013.32
2016-06-01T03:48:44.495Z,1013.33
2016-06-01T03:49:44.483Z,1013.31
2016-06-01T03:50:44.454Z,1013.28
2016-06-01T03:51:44.442Z,1013.28
2016-06-01T03:52:44.427Z,1013.3
2016-06-01T03:53:45.056Z,1013.26
2016-06-01T03:54:44.403Z,1013.29
2016-06-01T03:55:44.374Z,1013.31
2016-06-01T03:56:44.361Z,1013.26
2016-06-01T03:57:44.349Z,1013.29
2016-06-01T03:58:44.335Z,1013.26
2016-06-01T03:59:44.322Z,1013.28
2016-06-01T04:00:44.309Z,1013.24
2016-06-01T04:01:44.280Z,1013.22
2016-06-01T04:02:44.268Z,1013.24
2016-06-01T04:03:44.255Z,1013.24
2016-06-01T04:04:44.243Z,1013.29
2016-06-01T04:05:44.228Z,1013.28
2016-06-01T04:06:44.216Z,1013.29
2016-06-01T04:07:44.188Z,1013.33
2016-06-01T04:08:44.206Z,1013.32
2016-06-01T04:09:44.568Z,1013.32
2016-06-01T04:10:44.149Z,1013.29
2016-06-01T04:11:44.136Z,1013.29
2016-06-01T04:12:44.107Z,1013.26
2016-06-01T04:13:44.095Z,1013.28
2016-06-01T04:14:44.081Z,1013.26
2016-06-01T04:15:44.068Z,1013.3
2016-06-01T04:16:44.056Z,1013.24
2016-06-01T04:17:44.042Z,1013.25
2016-06-01T04:18:44.030Z,1013.22
2016-06-01T04:19:44.000Z,1013.28
2016-06-01T04:20:43.989Z,1013.31
2016-06-01T04:21:43.975Z,1013.24
2016-06-01T04:22:43.962Z,1013.22
2016-06-01T04:23:44.714Z,1013.19
2016-06-01T04:24:43.936Z,1013.24
2016-06-01T04:25:43.907Z,1013.2
2016-06-01T04:26:43.895Z,1013.17
2016-06-01T04:27:43.882Z,1013.21
2016-06-01T04:28:43.869Z,1013.16
2016-06-01T04:29:43.840Z,1013.17
2016-06-01T04:30:43.828Z,1013.19
2016-06-01T04:31:43.814Z,1013.23
2016-06-01T04:32:43.802Z,1013.19
2016-06-01T04:33:43.788Z,1013.23
2016-06-01T04:34:43.760Z,1013.22
2016-06-01T04:35:43.747Z,1013.23
2016-06-01T04:36:43.734Z,1013.24
2016-06-01T04:37:43.721Z,1013.25
2016-06-01T04:38:43.974Z,1013.3
2016-06-01T04:39:43.696Z,1013.3
2016-06-01T04:40:43.667Z,1013.3
2016-06-01T04:41:43.670Z,1013.31
2016-06-01T04:42:43.640Z,1013.32
2016-06-01T04:43:43.628Z,1013.34
2016-06-01T04:44:43.615Z,1013.31
2016-06-01T04:45:43.602Z,1013.3
2016-06-01T04:46:43.589Z,1013.31
2016-06-01T04:47:43.561Z,1013.31
2016-06-01T04:48:43.547Z,1013.3
2016-06-01T04:49:43.535Z,1013.32
2016-06-01T04:50:43.522Z,1013.35
2016-06-01T04:51:43.508Z,1013.35
2016-06-01T04:52:43.481Z,1013.33
2016-06-01T04:53:44.217Z,1013.4
2016-06-01T04:54:44.188Z,1013.39
2016-06-01T04:55:43.442Z,1013.38
2016-06-01T04:56:43.413Z,1013.4
2016-06-01T04:57:43.400Z,1013.44
2016-06-01T04:58:43.402Z,1013.42
2016-06-01T04:59:43.375Z,1013.48
2016-06-01T05:00:43.361Z,1013.45
2016-06-01T05:01:43.349Z,1013.45
2016-06-01T05:02:43.335Z,1013.46
2016-06-01T05:03:43.307Z,1013.45
2016-06-01T05:04:43.294Z,1013.46
2016-06-01T05:05:43.281Z,1013.51
2016-06-01T05:06:43.268Z,1013.47
2016-06-01T05:07:43.255Z,1013.44
2016-06-01T05:08:43.227Z,1013.46
2016-06-01T05:09:43.214Z,1013.48
2016-06-01T05:10:43.201Z,1013.49
2016-06-01T05:11:43.187Z,1013.51
2016-06-01T05:12:43.175Z,1013.48
2016-06-01T05:13:43.146Z,1013.48
2016-06-01T05:14:43.133Z,1013.48
2016-06-01T05:15:43.120Z,1013.51
2016-06-01T05:16:43.107Z,1013.55
2016-06-01T05:17:43.079Z,1013.55
2016-06-01T05:18:43.066Z,1013.52
2016-06-01T05:19:43.053Z,1013.52
2016-06-01T05:20:43.040Z,1013.55
2016-06-01T05:21:43.028Z,1013.52
2016-06-01T05:22:42.998Z,1013.52
2016-06-01T05:23:43.188Z,1013.5
2016-06-01T05:24:43.270Z,1013.52
2016-06-01T05:25:42.960Z,1013.52
2016-06-01T05:26:42.947Z,1013.55
2016-06-01T05:27:42.934Z,1013.54
2016-06-01T05:28:42.905Z,1013.57
2016-06-01T05:29:42.892Z,1013.57
2016-06-01T05:30:42.895Z,1013.58
2016-06-01T05:31:42.866Z,1013.58
2016-06-01T05:32:42.854Z,1013.61
2016-06-01T05:33:42.841Z,1013.64
2016-06-01T05:34:42.827Z,1013.63
2016-06-01T05:35:42.799Z,1013.67
2016-06-01T05:36:42.786Z,1013.67
2016-06-01T05:37:42.774Z,1013.66
2016-06-01T05:38:43.245Z,1013.64
2016-06-01T05:39:42.732Z,1013.68
2016-06-01T05:40:42.718Z,1013.68
2016-06-01T05:41:42.706Z,1013.68
2016-06-01T05:42:42.693Z,1013.68
2016-06-01T05:43:42.679Z,1013.71
2016-06-01T05:44:42.651Z,1013.72
2016-06-01T05:45:42.639Z,1013.72
2016-06-01T05:46:42.626Z,1013.69
2016-06-01T05:47:42.612Z,1013.68
2016-06-01T05:48:42.600Z,1013.67
2016-06-01T05:49:42.587Z,1013.65
2016-06-01T05:50:42.559Z,1013.67
2016-06-01T05:51:42.545Z,1013.68
2016-06-01T05:52:42.533Z,1013.67
2016-06-01T05:53:42.519Z,1013.66
2016-06-01T05:54:42.897Z,1013.71
2016-06-01T05:55:42.478Z,1013.68
2016-06-01T05:56:42.465Z,1013.67
2016-06-01T05:57:42.452Z,1013.7
2016-06-01T05:58:42.439Z,1013.68
2016-06-01T05:59:42.427Z,1013.71
2016-06-01T06:00:42.414Z,1013.71
2016-06-01T06:01:42.400Z,1013.72
2016-06-01T06:02:42.372Z,1013.71
2016-06-01T06:03:42.359Z,1013.73
2016-06-01T06:04:42.346Z,1013.73
2016-06-01T06:05:42.332Z,1013.71
2016-06-01T06:06:42.304Z,1013.75
2016-06-01T06:07:42.291Z,1013.71
2016-06-01T06:08:42.279Z,1013.7
2016-06-01T06:09:42.265Z,1013.75
2016-06-01T06:10:42.252Z,1013.73
2016-06-01T06:11:42.224Z,1013.75
2016-06-01T06:12:42.227Z,1013.76
2016-06-01T06:13:42.199Z,1013.79
2016-06-01T06:14:42.185Z,1013.77
2016-06-01T06:15:42.156Z,1013.75
2016-06-01T06:16:42.143Z,1013.78
2016-06-01T06:17:42.131Z,1013.76
2016-06-01T06:18:42.117Z,1013.82
2016-06-01T06:19:42.105Z,1013.8
2016-06-01T06:20:42.076Z,1013.79
2016-06-01T06:21:42.063Z,1013.78
2016-06-01T06:22:42.050Z,1013.78
2016-06-01T06:23:42.367Z,1013.78
2016-06-01T06:24:42.025Z,1013.75
2016-06-01T06:25:42.012Z,1013.77
2016-06-01T06:26:41.983Z,1013.77
2016-06-01T06:27:41.970Z,1013.76
2016-06-01T06:28:41.957Z,1013.75
2016-06-01T06:29:41.945Z,1013.73
2016-06-01T06:30:41.931Z,1013.77
2016-06-01T06:31:41.902Z,1013.77
2016-06-01T06:32:41.890Z,1013.73
2016-06-01T06:33:41.877Z,1013.75
2016-06-01T06:34:41.864Z,1013.78
2016-06-01T06:35:41.852Z,1013.77
2016-06-01T06:36:41.838Z,1013.82
2016-06-01T06:37:41.825Z,1013.76
2016-06-01T06:38:41.796Z,1013.8
2016-06-01T06:39:41.784Z,1013.83
2016-06-01T06:40:41.771Z,1013.79
2016-06-01T06:41:41.758Z,1013.82
2016-06-01T06:42:41.730Z,1013.81
2016-06-01T06:43:41.732Z,1013.82
2016-06-01T06:44:41.704Z,1013.81
2016-06-01T06:45:41.690Z,1013.82
2016-06-01T06:46:41.678Z,1013.85
2016-06-01T06:47:41.665Z,1013.81
2016-06-01T06:48:41.651Z,1013.81
2016-06-01T06:49:41.639Z,1013.82
2016-06-01T06:50:41.626Z,1013.77
2016-06-01T06:51:41.598Z,1013.79
2016-06-01T06:52:41.584Z,1013.79
2016-06-01T06:53:41.821Z,1013.77
2016-06-01T06:54:41.636Z,1013.78
2016-06-01T06:55:41.545Z,1013.79
2016-06-01T06:56:41.533Z,1013.77
2016-06-01T06:57:41.504Z,1013.83
2016-06-01T06:58:41.492Z,1013.78
2016-06-01T06:59:41.494Z,1013.81
2016-06-01T07:00:41.465Z,1013.83
2016-06-01T07:01:41.452Z,1013.84
2016-06-01T07:02:41.424Z,1013.82
2016-06-01T07:03:41.411Z,1013.82
2016-06-01T07:04:41.398Z,1013.8
2016-06-01T07:05:41.386Z,1013.82
2016-06-01T07:06:41.372Z,1013.84
2016-06-01T07:07:41.359Z,1013.83
2016-06-01T07:08:41.347Z,1013.82
2016-06-01T07:09:41.818Z,1013.82
2016-06-01T07:10:41.305Z,1013.83
2016-06-01T07:11:41.291Z,1013.81
2016-06-01T07:12:41.279Z,1013.79
2016-06-01T07:13:41.266Z,1013.76
2016-06-01T07:14:41.253Z,1013.74
2016-06-01T07:15:41.240Z,1013.74
2016-06-01T07:16:41.211Z,1013.79
2016-06-01T07:17:41.199Z,1013.81
2016-06-01T07:18:41.185Z,1013.8
2016-06-01T07:19:41.188Z,1013.79
2016-06-01T07:20:41.160Z,1013.82
2016-06-01T07:21:41.131Z,1013.78
2016-06-01T07:22:41.118Z,1013.8
2016-06-01T07:23:41.105Z,1013.8
2016-06-01T07:24:41.108Z,1013.81
2016-06-01T07:25:41.079Z,1013.8
2016-06-01T07:26:41.067Z,1013.81
2016-06-01T07:27:41.038Z,1013.8
2016-06-01T07:28:41.041Z,1013.81
2016-06-01T07:29:41.028Z,1013.83
2016-06-01T07:30:40.999Z,1013.85
2016-06-01T07:31:40.986Z,1013.85
2016-06-01T07:32:40.973Z,1013.86
2016-06-01T07:33:40.961Z,1013.84
2016-06-01T07:34:40.947Z,1013.86
2016-06-01T07:35:40.919Z,1013.86
2016-06-01T07:36:40.906Z,1013.86
2016-06-01T07:37:40.893Z,1013.86
2016-06-01T07:38:40.879Z,1013.87
2016-06-01T07:39:40.866Z,1013.87
2016-06-01T07:40:40.854Z,1013.85
2016-06-01T07:41:40.841Z,1013.9
2016-06-01T07:42:40.829Z,1013.94
2016-06-01T07:43:40.816Z,1013.93
2016-06-01T07:44:40.787Z,1013.91
2016-06-01T07:45:40.789Z,1013.91
2016-06-01T07:46:40.760Z,1013.94
2016-06-01T07:47:40.748Z,1013.89
2016-06-01T07:48:40.735Z,1013.93
2016-06-01T07:49:40.723Z,1013.9
2016-06-01T07:50:40.709Z,1013.89
2016-06-01T07:51:40.696Z,1013.93
2016-06-01T07:52:40.683Z,1013.95
2016-06-01T07:53:41.217Z,1013.93
2016-06-01T07:54:40.642Z,1013.92
2016-06-01T07:55:40.629Z,1013.95
2016-06-01T07:56:40.616Z,1013.98
2016-06-01T07:57:40.603Z,1013.98
2016-06-01T07:58:40.590Z,1014
2016-06-01T07:59:40.577Z,1013.98
2016-06-01T08:00:40.549Z,1013.98
2016-06-01T08:01:40.535Z,1013.98
2016-06-01T08:02:40.522Z,1014
2016-06-01T08:03:40.510Z,1013.97
2016-06-01T08:04:43.216Z,1014.01
2016-06-01T08:05:41.046Z,1013.99
2016-06-01T08:06:40.471Z,1014
2016-06-01T08:07:40.442Z,1014
2016-06-01T08:08:40.445Z,1014.04
2016-06-01T08:09:40.432Z,1014
2016-06-01T08:10:40.404Z,1014.05
2016-06-01T08:11:40.390Z,1014
2016-06-01T08:12:40.377Z,1014.08
2016-06-01T08:13:40.365Z,1014.08
2016-06-01T08:14:40.352Z,1014.06
2016-06-01T08:15:40.339Z,1014.09
2016-06-01T08:16:40.326Z,1014.04
2016-06-01T08:17:40.313Z,1014.04
2016-06-01T08:18:40.300Z,1014.05
2016-06-01T08:19:40.271Z,1014.01
2016-06-01T08:20:40.259Z,1013.99
2016-06-01T08:21:40.309Z,1014.02
2016-06-01T08:22:40.233Z,1013.99
2016-06-01T08:23:40.220Z,1014.04
2016-06-01T08:24:40.222Z,1014.03
2016-06-01T08:25:40.195Z,1014.03
2016-06-01T08:26:40.181Z,1014
2016-06-01T08:27:40.168Z,1013.97
2016-06-01T08:28:40.155Z,1014
2016-06-01T08:29:40.142Z,1014.02
2016-06-01T08:30:40.129Z,1013.99
2016-06-01T08:31:40.117Z,1014.03
2016-06-01T08:32:40.103Z,1014.02
2016-06-01T08:33:40.105Z,1014.03
2016-06-01T08:34:40.062Z,1013.96
2016-06-01T08:35:40.049Z,1013.96
2016-06-01T08:36:40.036Z,1013.96
2016-06-01T08:37:40.023Z,1013.95
2016-06-01T08:38:40.010Z,1014
2016-06-01T08:39:39.997Z,1013.96
2016-06-01T08:40:39.985Z,1013.96
2016-06-01T08:41:39.971Z,1013.95
2016-06-01T08:42:39.943Z,1013.97
2016-06-01T08:43:39.930Z,1013.93
2016-06-01T08:44:39.917Z,1013.95
2016-06-01T08:45:39.904Z,1013.94
2016-06-01T08:46:39.891Z,1013.92
2016-06-01T08:47:39.879Z,1013.93
2016-06-01T08:48:39.866Z,1013.97
2016-06-01T08:49:39.852Z,1013.93
2016-06-01T08:50:39.839Z,1013.94
2016-06-01T08:51:39.826Z,1013.93
2016-06-01T08:52:39.813Z,1013.89
2016-06-01T08:53:39.801Z,1013.93
2016-06-01T08:54:39.788Z,1013.89
2016-06-01T08:55:39.775Z,1013.89
2016-06-01T08:56:39.746Z,1013.89
2016-06-01T08:57:39.734Z,1013.89
2016-06-01T08:58:39.736Z,1013.91
2016-06-01T08:59:39.722Z,1013.94
2016-06-01T09:00:39.710Z,1013.91
2016-06-01T09:01:39.697Z,1013.89
2016-06-01T09:02:39.669Z,1013.86
2016-06-01T09:03:39.672Z,1013.88
2016-06-01T09:04:39.642Z,1013.87
2016-06-01T09:05:39.630Z,1013.86
2016-06-01T09:06:39.633Z,1013.86
2016-06-01T09:07:39.603Z,1013.86
2016-06-01T09:08:39.591Z,1013.85
2016-06-01T09:09:39.577Z,1013.82
2016-06-01T09:10:39.565Z,1013.87
2016-06-01T09:11:39.552Z,1013.81
2016-06-01T09:12:39.539Z,1013.83
2016-06-01T09:13:39.527Z,1013.82
2016-06-01T09:17:39.509Z,1013.88
2016-06-01T09:18:39.535Z,1013.84
2016-06-01T09:19:39.531Z,1013.81
2016-06-01T09:20:39.556Z,1013.88
2016-06-01T09:21:39.553Z,1013.85
2016-06-01T09:22:39.547Z,1013.85
2016-06-01T09:23:39.528Z,1013.8
2016-06-01T09:24:40.008Z,1013.8
2016-06-01T09:25:39.519Z,1013.78
2016-06-01T09:26:39.525Z,1013.79
2016-06-01T09:27:39.499Z,1013.82
2016-06-01T09:28:39.504Z,1013.8
2016-06-01T09:29:39.479Z,1013.78
2016-06-01T09:30:39.469Z,1013.76
2016-06-01T09:31:39.457Z,1013.8
2016-06-01T09:32:39.446Z,1013.76
2016-06-01T09:33:39.435Z,1013.76
2016-06-01T09:34:39.422Z,1013.74
2016-06-01T09:35:39.410Z,1013.75
2016-06-01T09:36:39.398Z,1013.75
2016-06-01T09:37:39.401Z,1013.73
2016-06-01T09:38:39.372Z,1013.75
2016-06-01T09:39:39.375Z,1013.72
2016-06-01T09:40:39.347Z,1013.72
2016-06-01T09:41:39.336Z,1013.73
2016-06-01T09:42:39.323Z,1013.74
2016-06-01T09:43:39.309Z,1013.68
2016-06-01T09:44:39.297Z,1013.71
2016-06-01T09:45:39.284Z,1013.7
2016-06-01T09:46:39.271Z,1013.73
2016-06-01T09:47:39.259Z,1013.66
2016-06-01T09:48:39.309Z,1013.67
2016-06-01T09:49:39.233Z,1013.7
2016-06-01T09:50:39.220Z,1013.71
2016-06-01T09:51:39.207Z,1013.68
2016-06-01T09:52:39.195Z,1013.69
2016-06-01T09:53:39.181Z,1013.71
2016-06-01T09:54:39.433Z,1013.67
2016-06-01T09:55:39.171Z,1013.66
2016-06-01T09:56:39.142Z,1013.7
2016-06-01T09:57:39.130Z,1013.67
2016-06-01T09:58:39.116Z,1013.7
2016-06-01T09:59:39.103Z,1013.69
2016-06-01T10:00:39.091Z,1013.64
2016-06-01T10:01:39.125Z,1013.64
2016-06-01T10:02:39.065Z,1013.66
2016-06-01T10:03:39.052Z,1013.67
2016-06-01T10:04:39.038Z,1013.67
2016-06-01T10:05:39.027Z,1013.64
2016-06-01T10:06:39.029Z,1013.67
2016-06-01T10:07:39.000Z,1013.67
2016-06-01T10:08:38.987Z,1013.7
2016-06-01T10:09:38.974Z,1013.68
2016-06-01T10:10:38.977Z,1013.65
2016-06-01T10:11:38.964Z,1013.65
2016-06-01T10:12:38.936Z,1013.67
2016-06-01T10:13:38.923Z,1013.72
2016-06-01T10:14:38.925Z,1013.73
2016-06-01T10:15:38.913Z,1013.73
2016-06-01T10:16:38.899Z,1013.73
2016-06-01T10:17:38.886Z,1013.73
2016-06-01T10:18:38.873Z,1013.69
2016-06-01T10:19:38.860Z,1013.69
2016-06-01T10:20:38.848Z,1013.67
2016-06-01T10:21:38.834Z,1013.64
2016-06-01T10:22:38.837Z,1013.64
2016-06-01T10:23:38.825Z,1013.7
2016-06-01T10:24:38.921Z,1013.65
2016-06-01T10:25:38.784Z,1013.67
2016-06-01T10:26:38.786Z,1013.62
2016-06-01T10:27:38.788Z,1013.64
2016-06-01T10:28:38.759Z,1013.61
2016-06-01T10:29:38.731Z,1013.67
2016-06-01T10:30:38.734Z,1013.7
2016-06-01T10:31:38.721Z,1013.66
2016-06-01T10:32:38.724Z,1013.69
2016-06-01T10:33:38.727Z,1013.66
2016-06-01T10:34:38.698Z,1013.7
2016-06-01T10:35:38.669Z,1013.71
2016-06-01T10:36:38.672Z,1013.75
2016-06-01T10:37:38.643Z,1013.71
2016-06-01T10:38:38.647Z,1013.69
2016-06-01T10:39:38.649Z,1013.72
2016-06-01T10:40:38.604Z,1013.69
2016-06-01T10:41:38.608Z,1013.67
2016-06-01T10:42:38.594Z,1013.71
2016-06-01T10:43:38.582Z,1013.69
2016-06-01T10:44:38.568Z,1013.7
2016-06-01T10:45:38.571Z,1013.67
2016-06-01T10:46:38.542Z,1013.67
2016-06-01T10:47:38.546Z,1013.73
2016-06-01T10:48:38.532Z,1013.7
2016-06-01T10:49:38.520Z,1013.65
2016-06-01T10:50:38.507Z,1013.68
2016-06-01T10:51:38.526Z,1013.57
2016-06-01T10:52:38.481Z,1013.59
2016-06-01T10:53:38.483Z,1013.62
2016-06-01T10:54:38.470Z,1013.57
2016-06-01T10:55:38.442Z,1013.57
2016-06-01T10:56:38.445Z,1013.56
2016-06-01T10:57:38.447Z,1013.59
2016-06-01T10:58:38.465Z,1013.58
2016-06-01T10:59:38.422Z,1013.58
2016-06-01T11:00:38.393Z,1013.57
2016-06-01T11:01:38.396Z,1013.56
2016-06-01T11:02:38.413Z,1013.54
2016-06-01T11:03:38.385Z,1013.56
2016-06-01T11:04:38.356Z,1013.51
2016-06-01T11:05:38.375Z,1013.5
2016-06-01T11:06:38.346Z,1013.53
2016-06-01T11:07:38.349Z,1013.5
2016-06-01T11:08:38.321Z,1013.49
2016-06-01T11:09:38.683Z,1013.52
2016-06-01T11:10:38.294Z,1013.47
2016-06-01T11:11:38.282Z,1013.46
2016-06-01T11:12:38.346Z,1013.45
2016-06-01T11:13:38.271Z,1013.51
2016-06-01T11:14:38.258Z,1013.46
2016-06-01T11:15:38.261Z,1013.46
2016-06-01T11:16:38.248Z,1013.46
2016-06-01T11:17:38.251Z,1013.46
2016-06-01T11:18:38.223Z,1013.47
2016-06-01T11:19:38.210Z,1013.46
2016-06-01T11:20:38.212Z,1013.47
2016-06-01T11:21:38.199Z,1013.41
2016-06-01T11:22:38.186Z,1013.43
2016-06-01T11:23:38.173Z,1013.38
2016-06-01T11:24:38.176Z,1013.39
2016-06-01T11:25:38.382Z,1013.4
2016-06-01T11:26:38.150Z,1013.58
2016-06-01T11:27:38.137Z,1013.76
2016-06-01T11:28:38.140Z,1013.75
2016-06-01T11:29:38.128Z,1013.69
2016-06-01T11:30:38.130Z,1013.64
2016-06-01T11:31:38.116Z,1013.59
2016-06-01T11:32:38.103Z,1013.57
2016-06-01T11:33:38.106Z,1013.57
2016-06-01T11:34:38.109Z,1013.54
2016-06-01T11:35:38.097Z,1013.53
2016-06-01T11:36:38.100Z,1013.5
2016-06-01T11:37:38.086Z,1013.45
2016-06-01T11:38:38.089Z,1013.46
2016-06-01T11:39:38.201Z,1013.45
2016-06-01T11:40:38.110Z,1013.44
2016-06-01T11:41:38.080Z,1013.41
2016-06-01T11:42:38.068Z,1013.43
2016-06-01T11:43:38.071Z,1013.39
2016-06-01T11:44:38.074Z,1013.43
2016-06-01T11:45:38.077Z,1013.44
2016-06-01T11:46:38.079Z,1013.47
2016-06-01T11:47:38.129Z,1013.43
2016-06-01T11:48:38.069Z,1013.44
2016-06-01T11:49:38.071Z,1013.4
2016-06-01T11:50:38.074Z,1013.41
2016-06-01T11:51:38.077Z,1013.41
2016-06-01T11:52:38.079Z,1013.39
2016-06-01T11:53:38.082Z,1013.42
2016-06-01T11:54:38.194Z,1013.43
2016-06-01T11:55:38.087Z,1013.44
2016-06-01T11:56:38.090Z,1013.4
2016-06-01T11:57:38.093Z,1013.43
2016-06-01T11:58:38.095Z,1013.39
2016-06-01T11:59:38.098Z,1013.42
2016-06-01T12:00:38.101Z,1013.4
2016-06-01T12:01:38.104Z,1013.45
2016-06-01T12:02:38.106Z,1013.44
2016-06-01T12:03:38.125Z,1013.44
2016-06-01T12:04:38.112Z,1013.46
2016-06-01T12:05:38.131Z,1013.45
2016-06-01T12:06:38.132Z,1013.45
2016-06-01T12:07:38.120Z,1013.46
2016-06-01T12:08:38.123Z,1013.46
2016-06-01T12:09:38.141Z,1013.44
2016-06-01T12:10:38.424Z,1013.41
2016-06-01T12:11:38.147Z,1013.42